createdAt,value
2018-02-06T00:00:44.855Z,8.13
2018-02-06T00:03:12.487Z,9.20
2018-02-06T00:05:40.247Z,9.00
2018-02-06T00:08:08.659Z,8.83
2018-02-06T00:10:37.359Z,8.77
2018-02-06T00:13:05.003Z,7.13
2018-02-06T00:15:32.682Z,7.60
2018-02-06T00:18:00.335Z,7.33
2018-02-06T00:20:28.016Z,8.07
2018-02-06T00:22:55.666Z,8.13
2018-02-06T00:25:23.303Z,7.27
2018-02-06T00:27:50.944Z,7.63
2018-02-06T00:30:18.678Z,7.30
2018-02-06T00:32:46.390Z,7.67
2018-02-06T00:35:14.110Z,6.97
2018-02-06T00:37:42.511Z,7.37
2018-02-06T00:40:10.157Z,7.53
2018-02-06T00:42:38.609Z,7.20
2018-02-06T00:45:06.282Z,7.77
2018-02-06T00:47:34.749Z,7.90
2018-02-06T00:50:02.439Z,8.93
2018-02-06T00:52:30.895Z,9.27
2018-02-06T00:54:58.589Z,9.83
2018-02-06T00:57:26.227Z,8.80
2018-02-06T00:59:54.651Z,9.37
2018-02-06T01:02:22.376Z,9.10
2018-02-06T01:04:50.807Z,9.73
2018-02-06T01:07:18.559Z,10.80
2018-02-06T01:09:46.225Z,10.63
2018-02-06T01:12:13.897Z,10.33
2018-02-06T01:14:41.563Z,10.30
2018-02-06T01:17:09.227Z,10.00
2018-02-06T01:19:36.920Z,10.33
2018-02-06T01:22:05.341Z,10.70
2018-02-06T01:24:33.002Z,10.37
2018-02-06T01:27:00.685Z,10.33
2018-02-06T01:29:28.361Z,9.90
2018-02-06T01:31:56.007Z,10.77
2018-02-06T01:34:23.660Z,10.83
2018-02-06T01:36:51.294Z,10.93
2018-02-06T01:39:18.967Z,10.63
2018-02-06T01:41:46.619Z,10.73
2018-02-06T01:44:14.263Z,10.97
2018-02-06T01:46:41.900Z,10.40
2018-02-06T01:49:10.329Z,11.23
2018-02-06T01:51:37.987Z,10.43
2018-02-06T01:54:05.648Z,10.73
2018-02-06T01:56:33.308Z,10.87
2018-02-06T01:59:00.952Z,10.53
2018-02-06T02:01:28.625Z,10.50
2018-02-06T02:03:56.290Z,11.23
2018-02-06T02:06:23.954Z,11.77
2018-02-06T02:08:52.007Z,11.47
2018-02-06T02:11:19.669Z,11.13
2018-02-06T02:13:47.352Z,10.57
2018-02-06T02:16:15.006Z,12.07
2018-02-06T02:18:42.768Z,12.00
2018-02-06T02:21:10.472Z,11.30
2018-02-06T02:23:38.164Z,11.03
2018-02-06T02:26:05.802Z,11.03
2018-02-06T02:28:34.220Z,11.10
2018-02-06T02:31:01.891Z,11.67
2018-02-06T02:33:29.577Z,11.03
2018-02-06T02:35:57.219Z,12.03
2018-02-06T02:38:25.008Z,12.00
2018-02-06T02:40:52.687Z,10.93
2018-02-06T04:39:10.449Z,13.83
2018-02-06T04:41:38.165Z,13.40
2018-02-06T04:44:05.842Z,14.70
2018-02-06T04:46:34.271Z,14.30
2018-02-06T04:49:01.986Z,15.43
2018-02-06T04:51:30.438Z,14.07
2018-02-06T04:53:58.126Z,14.70
2018-02-06T04:56:26.594Z,14.23
2018-02-06T04:58:54.263Z,14.67
2018-02-06T05:01:22.675Z,14.17
2018-02-06T05:03:50.332Z,14.50
2018-02-06T05:06:18.030Z,15.13
2018-02-06T05:08:45.687Z,15.00
2018-02-06T05:11:13.374Z,14.40
2018-02-06T05:13:41.050Z,13.73
2018-02-06T05:16:09.473Z,14.53
2018-02-06T05:18:37.175Z,14.57
2018-02-06T05:21:04.880Z,14.00
2018-02-06T05:23:32.597Z,15.13
2018-02-06T05:26:00.254Z,14.63
2018-02-06T05:28:27.937Z,15.30
2018-02-06T05:30:56.380Z,13.47
2018-02-06T05:33:24.816Z,14.27
2018-02-06T05:35:52.455Z,15.00
2018-02-06T05:38:20.886Z,14.13
2018-02-06T05:40:48.534Z,13.90
2018-02-06T05:43:16.174Z,13.77
2018-02-06T05:45:43.874Z,14.80
2018-02-06T05:48:11.522Z,14.30
2018-02-06T05:50:39.182Z,13.80
2018-02-06T05:53:06.826Z,15.10
2018-02-06T05:55:34.522Z,15.10
2018-02-06T05:58:02.210Z,13.93
2018-02-06T06:00:30.655Z,14.77
2018-02-06T06:02:59.077Z,13.70
2018-02-06T06:05:27.507Z,13.93
2018-02-06T06:07:55.174Z,14.70
2018-02-06T06:10:22.815Z,13.57
2018-02-06T06:12:50.463Z,14.67
2018-02-06T06:15:18.135Z,14.70
2018-02-06T06:17:45.789Z,13.77
2018-02-06T06:20:13.450Z,14.23
2018-02-06T06:22:41.083Z,12.97
2018-02-06T06:25:09.518Z,13.77
2018-02-06T06:27:37.169Z,14.00
2018-02-06T06:30:04.830Z,15.83
2018-02-06T06:32:32.485Z,15.43
2018-02-06T06:35:00.142Z,14.60
2018-02-06T06:37:27.808Z,12.97
2018-02-06T06:39:56.212Z,13.60
2018-02-06T06:42:23.880Z,13.10
2018-02-06T06:44:51.547Z,14.00
2018-02-06T06:47:20.011Z,14.23
2018-02-06T06:49:47.664Z,13.67
2018-02-06T06:52:15.327Z,12.87
2018-02-06T06:54:42.992Z,13.50
2018-02-06T06:57:10.639Z,12.90
2018-02-06T06:59:38.296Z,13.63
2018-02-06T07:02:06.434Z,13.87
2018-02-06T07:04:34.439Z,12.80
2018-02-06T07:07:02.095Z,12.77
2018-02-06T07:09:32.559Z,11.83
2018-02-06T07:12:00.997Z,11.53
2018-02-06T07:14:29.498Z,11.70
2018-02-06T07:16:57.173Z,12.63
2018-02-06T07:19:25.599Z,13.60
2018-02-06T07:21:53.376Z,12.30
2018-02-06T07:24:21.042Z,12.53
2018-02-06T07:26:48.706Z,12.43
2018-02-06T07:29:16.425Z,13.23
2018-02-06T07:31:44.421Z,13.87
2018-02-06T07:34:12.398Z,13.90
2018-02-06T07:36:40.139Z,14.40
2018-02-06T07:39:07.854Z,13.97
2018-02-06T07:41:35.512Z,12.40
2018-02-06T07:44:03.258Z,13.17
2018-02-06T07:46:30.968Z,11.70
2018-02-06T07:48:58.629Z,13.60
2018-02-06T07:51:26.280Z,12.67
2018-02-06T07:53:54.710Z,12.50
2018-02-06T07:56:23.127Z,11.60
2018-02-06T07:58:50.880Z,11.07
2018-02-06T08:01:18.586Z,10.87
2018-02-06T08:03:46.232Z,10.30
2018-02-06T08:06:13.942Z,10.83
2018-02-06T08:08:42.369Z,11.53
2018-02-06T08:11:10.806Z,11.13
2018-02-06T08:13:38.474Z,11.20
2018-02-06T08:16:06.123Z,11.03
2018-02-06T08:18:33.840Z,10.43
2018-02-06T08:21:01.558Z,10.10
2018-02-06T08:23:29.241Z,11.10
2018-02-06T08:25:57.750Z,10.57
2018-02-06T08:28:25.404Z,9.83
2018-02-06T08:30:53.061Z,10.13
2018-02-06T08:33:20.719Z,10.77
2018-02-06T08:35:48.429Z,11.47
2018-02-06T08:38:16.899Z,14.17
2018-02-06T08:40:44.581Z,13.17
2018-02-06T08:43:12.250Z,14.20
2018-02-06T08:45:39.926Z,14.20
2018-02-06T08:48:08.373Z,14.07
2018-02-06T08:50:36.040Z,14.77
2018-02-06T08:53:03.726Z,15.40
2018-02-06T08:55:32.137Z,15.83
2018-02-06T08:58:00.123Z,14.77
2018-02-06T09:00:27.779Z,15.23
2018-02-06T09:02:55.450Z,15.33
2018-02-06T09:05:23.106Z,16.23
2018-02-06T09:07:51.540Z,15.30
2018-02-06T09:10:19.977Z,15.33
2018-02-06T09:12:47.618Z,15.40
2018-02-06T09:15:15.269Z,15.20
2018-02-06T09:17:42.925Z,14.80
2018-02-06T09:20:10.614Z,15.57
2018-02-06T09:22:38.323Z,15.57
2018-02-06T09:25:06.731Z,17.97
2018-02-06T09:27:34.413Z,15.77
2018-02-06T09:30:02.086Z,16.77
2018-02-06T09:32:29.764Z,15.60
2018-02-06T09:34:58.247Z,14.00
2018-02-06T09:37:26.700Z,16.07
2018-02-06T09:39:54.333Z,14.83
2018-02-06T09:42:22.016Z,15.13
2018-02-06T09:44:49.693Z,14.47
2018-02-06T09:47:17.354Z,15.53
2018-02-06T09:49:45.063Z,15.97
2018-02-06T09:52:12.727Z,14.37
2018-02-06T09:54:40.378Z,13.93
2018-02-06T09:57:08.833Z,11.97
2018-02-06T09:59:37.252Z,13.57
2018-02-06T10:02:04.928Z,12.60
2018-02-06T10:04:32.580Z,13.07
2018-02-06T10:07:00.246Z,12.80
2018-02-06T10:09:27.882Z,13.13
2018-02-06T10:11:55.709Z,11.90
2018-02-06T10:14:24.303Z,12.43
2018-02-06T10:16:52.067Z,12.57
2018-02-06T10:19:20.616Z,11.70
2018-02-06T10:21:48.413Z,11.80
2018-02-06T10:24:16.176Z,11.80
2018-02-06T10:26:43.963Z,12.47
2018-02-06T10:29:11.787Z,11.07
2018-02-06T10:31:40.352Z,11.73
2018-02-06T10:34:08.183Z,12.37
2018-02-06T10:36:35.975Z,11.60
2018-02-06T10:39:03.891Z,11.20
2018-02-06T10:41:31.680Z,11.67
2018-02-06T10:43:59.365Z,11.40
2018-02-06T10:46:27.029Z,11.37
2018-02-06T10:49:00.556Z,11.23
2018-02-06T10:51:29.021Z,12.07
2018-02-06T10:53:56.727Z,12.70
2018-02-06T10:56:24.408Z,12.47
2018-02-06T10:58:52.061Z,12.07
2018-02-06T11:01:19.723Z,12.10
2018-02-06T11:03:47.396Z,12.00
2018-02-06T11:06:15.026Z,12.13
2018-02-06T11:08:42.739Z,11.87
2018-02-06T11:11:10.405Z,12.23
2018-02-06T11:13:38.067Z,12.13
2018-02-06T11:16:05.734Z,13.20
2018-02-06T11:18:33.377Z,13.03
2018-02-06T11:21:01.043Z,13.00
2018-02-06T11:23:28.714Z,12.50
2018-02-06T11:25:56.410Z,12.43
2018-02-06T11:28:24.099Z,12.27
2018-02-06T11:30:51.765Z,11.83
2018-02-06T11:33:19.426Z,12.53
2018-02-06T11:35:47.075Z,12.70
2018-02-06T11:38:14.746Z,13.07
2018-02-06T11:40:42.395Z,12.40
2018-02-06T11:43:10.073Z,12.83
2018-02-06T11:45:37.738Z,13.00
2018-02-06T11:48:05.398Z,12.67
2018-02-06T11:50:33.070Z,14.87
2018-02-06T11:53:00.741Z,14.00
2018-02-06T11:55:28.454Z,13.33
2018-02-06T11:57:56.094Z,13.90
2018-02-06T12:00:24.583Z,12.90
2018-02-06T12:02:52.266Z,13.13
2018-02-06T12:05:19.927Z,12.60
2018-02-06T12:07:47.567Z,12.70
2018-02-06T12:10:15.215Z,12.87
2018-02-06T12:12:43.686Z,13.07
2018-02-06T12:15:12.138Z,12.53
2018-02-06T12:17:39.779Z,13.07
2018-02-06T12:20:07.419Z,12.20
2018-02-06T12:22:35.063Z,12.63
2018-02-06T12:25:02.711Z,13.13
2018-02-06T12:27:31.113Z,13.83
2018-02-06T12:29:58.759Z,13.70
2018-02-06T12:32:26.401Z,13.63
2018-02-06T12:34:54.811Z,12.90
2018-02-06T12:37:22.456Z,12.67
2018-02-06T12:39:50.134Z,12.97
2018-02-06T12:42:17.776Z,13.00
2018-02-06T12:44:45.445Z,11.87
2018-02-06T12:47:13.154Z,12.67
2018-02-06T12:49:40.789Z,13.73
2018-02-06T12:52:08.432Z,13.17
2018-02-06T12:54:36.089Z,12.27
2018-02-06T12:57:03.752Z,12.23
2018-02-06T13:01:59.797Z,12.33
2018-02-06T13:04:27.451Z,13.00
2018-02-06T13:06:55.120Z,13.10
2018-02-06T13:09:22.811Z,12.53
2018-02-06T13:11:50.458Z,13.27
2018-02-06T13:14:18.101Z,12.77
2018-02-06T13:16:46.502Z,12.73
2018-02-06T13:19:14.911Z,12.90
2018-02-06T13:21:43.313Z,13.83
2018-02-06T13:24:10.955Z,12.67
2018-02-06T13:26:39.359Z,12.33
2018-02-06T13:29:07.118Z,13.33
2018-02-06T13:31:34.938Z,12.87
2018-02-06T13:34:03.596Z,13.47
2018-02-06T13:36:31.436Z,12.27
2018-02-06T13:38:59.289Z,13.07
2018-02-06T13:41:27.124Z,12.60
2018-02-06T13:43:56.146Z,13.80
2018-02-06T13:46:24.600Z,12.67
2018-02-06T13:48:53.044Z,12.73
2018-02-06T13:51:21.387Z,12.60
2018-02-06T13:53:49.982Z,12.47
2018-02-06T13:56:18.492Z,13.30
2018-02-06T13:58:46.972Z,12.70
2018-02-06T14:01:14.740Z,13.03
2018-02-06T14:03:42.401Z,12.27
2018-02-06T14:06:10.078Z,12.57
2018-02-06T14:08:37.726Z,12.40
2018-02-06T14:11:05.379Z,12.77
2018-02-06T14:13:33.017Z,12.93
2018-02-06T14:16:00.660Z,12.40
2018-02-06T14:18:28.313Z,13.40
2018-02-06T14:20:55.980Z,13.17
2018-02-06T14:23:23.611Z,13.83
2018-02-06T14:25:52.040Z,13.73
2018-02-06T14:28:19.681Z,13.53
2018-02-06T14:30:47.334Z,14.03
2018-02-06T14:33:14.982Z,13.03
2018-02-06T14:35:43.410Z,13.97
2018-02-06T14:38:17.832Z,13.87
2018-02-06T14:40:45.479Z,13.87
2018-02-06T14:43:13.168Z,13.50
2018-02-06T14:45:40.878Z,13.87
2018-02-06T14:48:08.535Z,13.90
2018-02-06T14:50:36.201Z,14.57
2018-02-06T14:53:03.868Z,14.33
2018-02-06T14:55:31.553Z,14.33
2018-02-06T14:58:00.097Z,15.13
2018-02-06T15:00:27.806Z,15.60
2018-02-06T15:02:55.527Z,14.93
2018-02-06T15:05:23.226Z,14.73
2018-02-06T15:07:50.916Z,14.97
2018-02-06T15:10:19.366Z,15.03
2018-02-06T15:12:47.036Z,16.60
2018-02-06T15:15:14.730Z,15.40
2018-02-06T15:17:43.212Z,14.43
2018-02-06T15:20:10.921Z,14.50
2018-02-06T15:22:38.619Z,14.13
2018-02-06T15:25:07.098Z,14.23
2018-02-06T15:27:34.739Z,14.87
2018-02-06T15:30:02.683Z,14.47
2018-02-06T15:32:30.379Z,13.93
2018-02-06T15:34:58.856Z,14.80
2018-02-06T15:37:26.520Z,14.67
2018-02-06T15:39:54.221Z,15.50
2018-02-06T15:42:21.884Z,15.03
2018-02-06T15:44:49.569Z,14.17
2018-02-06T15:47:17.256Z,14.17
2018-02-06T15:49:44.903Z,15.30
2018-02-06T15:52:12.591Z,15.00
2018-02-06T15:54:40.246Z,15.17
2018-02-06T15:57:07.930Z,15.07
2018-02-06T15:59:36.361Z,15.97
2018-02-06T16:02:04.085Z,14.97
2018-02-06T16:04:31.765Z,14.37
2018-02-06T16:06:59.429Z,15.10
2018-02-06T16:09:27.288Z,15.07
2018-02-06T16:11:54.998Z,14.70
2018-02-06T16:14:23.460Z,14.63
2018-02-06T16:16:51.145Z,15.23
2018-02-06T16:19:19.576Z,15.77
2018-02-06T16:21:47.239Z,13.90
2018-02-06T16:24:14.915Z,13.70
2018-02-06T16:26:42.565Z,13.90
2018-02-06T16:29:10.222Z,13.77
2018-02-06T16:31:37.868Z,16.83
2018-02-06T16:34:05.552Z,14.87
2018-02-06T16:36:33.229Z,13.57
2018-02-06T16:39:00.912Z,15.93
2018-02-06T16:41:29.328Z,14.30
2018-02-06T16:43:57.019Z,14.60
2018-02-06T16:46:24.711Z,15.10
2018-02-06T16:48:53.161Z,14.10
2018-02-06T16:51:20.868Z,14.30
2018-02-06T16:53:49.338Z,14.70
2018-02-06T16:56:17.782Z,14.47
2018-02-06T16:58:45.447Z,14.97
2018-02-06T17:01:13.255Z,14.70
2018-02-06T17:03:40.932Z,13.87
2018-02-06T17:06:08.588Z,13.63
2018-02-06T17:08:36.294Z,14.17
2018-02-06T17:11:03.977Z,14.17
2018-02-06T17:13:32.423Z,14.27
2018-02-06T17:16:00.074Z,14.27
2018-02-06T17:18:28.471Z,14.57
2018-02-06T17:20:57.078Z,14.13
2018-02-06T17:23:26.452Z,14.83
2018-02-06T17:25:54.917Z,14.70
2018-02-06T17:28:23.422Z,13.70
2018-02-06T17:30:51.988Z,14.53
2018-02-06T17:33:20.463Z,14.57
2018-02-06T17:35:48.936Z,13.73
2018-02-06T17:38:17.432Z,14.30
2018-02-06T17:40:46.024Z,14.67
2018-02-06T17:43:14.488Z,14.83
2018-02-06T17:45:42.993Z,15.10
2018-02-06T17:48:10.837Z,14.67
2018-02-06T17:50:38.631Z,13.73
2018-02-06T17:53:07.066Z,14.00
2018-02-06T17:55:34.826Z,15.23
2018-02-06T17:58:02.581Z,15.87
2018-02-06T18:00:30.297Z,13.87
2018-02-06T18:02:58.819Z,14.27
2018-02-06T18:05:26.641Z,14.83
2018-02-06T18:07:55.109Z,14.07
2018-02-06T18:10:22.814Z,14.37
2018-02-06T18:12:50.507Z,14.83
2018-02-06T18:15:18.198Z,14.33
2018-02-06T18:17:45.902Z,16.53
2018-02-06T18:20:15.200Z,14.70
2018-02-06T18:22:44.196Z,14.73
2018-02-06T18:25:11.921Z,14.90
2018-02-06T18:27:40.372Z,14.37
2018-02-06T18:30:08.106Z,13.53
2018-02-06T18:32:35.814Z,15.43
2018-02-06T18:35:03.518Z,14.50
2018-02-06T18:37:31.226Z,14.37
2018-02-06T18:39:58.890Z,14.93
2018-02-06T18:42:27.312Z,14.47
2018-02-06T18:44:54.981Z,14.80
2018-02-06T18:47:22.639Z,15.27
2018-02-06T18:49:50.337Z,15.50
2018-02-06T18:52:18.036Z,14.67
2018-02-06T18:54:45.718Z,15.20
2018-02-06T18:57:13.410Z,15.47
2018-02-06T18:59:41.104Z,15.43
2018-02-06T19:02:09.691Z,15.93
2018-02-06T19:04:38.124Z,15.17
2018-02-06T19:07:05.796Z,14.83
2018-02-06T19:09:33.517Z,14.90
2018-02-06T19:12:01.201Z,14.70
2018-02-06T19:14:28.867Z,15.03
2018-02-06T19:16:56.581Z,15.23
2018-02-06T19:19:25.029Z,15.43
2018-02-06T19:21:53.576Z,14.73
2018-02-06T19:24:21.298Z,15.97
2018-02-06T19:26:49.038Z,15.87
2018-02-06T19:29:16.763Z,16.50
2018-02-06T19:31:44.509Z,15.50
2018-02-06T19:34:12.233Z,15.27
2018-02-06T19:36:39.974Z,15.07
2018-02-06T19:39:07.693Z,16.20
2018-02-06T19:41:35.429Z,15.03
2018-02-06T19:44:03.961Z,16.27
2018-02-06T19:46:31.678Z,15.40
2018-02-06T19:49:00.260Z,16.40
2018-02-06T19:51:28.758Z,17.20
2018-02-06T19:53:57.245Z,16.10
2018-02-06T19:56:24.978Z,16.90
2018-02-06T19:58:52.680Z,15.83
2018-02-06T20:01:20.399Z,15.90
2018-02-06T20:03:48.172Z,16.47
2018-02-06T20:06:16.808Z,14.50
2018-02-06T20:08:44.535Z,15.57
2018-02-06T20:11:12.252Z,14.30
2018-02-06T20:13:40.001Z,13.70
2018-02-06T20:16:07.810Z,15.07
2018-02-06T20:18:36.278Z,15.73
2018-02-06T20:21:04.785Z,15.47
2018-02-06T20:23:32.521Z,14.93
2018-02-06T20:26:01.989Z,13.63
2018-02-06T20:28:29.870Z,14.57
2018-02-06T20:30:57.619Z,14.60
2018-02-06T20:33:25.399Z,14.30
2018-02-06T20:35:53.154Z,14.83
2018-02-06T20:38:20.954Z,15.23
2018-02-06T20:40:49.525Z,15.07
2018-02-06T20:43:18.021Z,16.53
2018-02-06T20:45:46.525Z,15.37
2018-02-06T20:48:14.296Z,16.30
2018-02-06T20:50:42.024Z,16.37
2018-02-06T20:53:09.813Z,16.57
2018-02-06T20:55:41.073Z,15.83
2018-02-06T20:58:08.912Z,15.33
2018-02-06T21:00:36.644Z,16.00
2018-02-06T21:03:05.211Z,15.13
2018-02-06T21:05:33.672Z,15.53
2018-02-06T21:08:01.445Z,15.27
2018-02-06T21:10:29.212Z,14.47
2018-02-06T21:12:58.069Z,15.40
2018-02-06T21:15:26.395Z,14.43
2018-02-06T21:17:54.941Z,15.40
2018-02-06T21:20:22.738Z,15.57
2018-02-06T21:22:50.571Z,15.73
2018-02-06T21:25:18.387Z,16.83
2018-02-06T21:27:46.132Z,14.67
2018-02-06T21:30:13.900Z,17.20
2018-02-06T21:32:42.415Z,16.80
2018-02-06T21:35:10.154Z,15.77
2018-02-06T21:37:38.633Z,14.77
2018-02-06T21:40:07.172Z,15.80
2018-02-06T21:42:34.886Z,14.73
2018-02-06T21:45:02.600Z,15.80
2018-02-06T21:47:30.317Z,25.10
2018-02-06T21:49:58.019Z,17.10
2018-02-06T21:52:25.740Z,14.63
2018-02-06T21:54:54.365Z,15.30
2018-02-06T21:57:22.167Z,14.70
2018-02-06T21:59:50.666Z,15.13
2018-02-06T22:02:18.370Z,15.70
2018-02-06T22:04:46.167Z,15.03
2018-02-06T22:07:14.691Z,15.43
2018-02-06T22:09:42.402Z,15.93
2018-02-06T22:12:10.154Z,15.33
2018-02-06T22:14:37.867Z,15.83
2018-02-06T22:17:05.637Z,15.07
2018-02-06T22:19:33.356Z,15.70
2018-02-06T22:22:01.833Z,15.50
2018-02-06T22:24:29.548Z,15.33
2018-02-06T22:26:57.235Z,15.33
2018-02-06T22:29:24.952Z,14.90
2018-02-06T22:31:52.643Z,17.23
2018-02-06T22:34:20.353Z,16.23
2018-02-06T22:36:48.782Z,16.43
2018-02-06T22:39:16.450Z,15.53
2018-02-06T22:41:44.158Z,15.90
2018-02-06T22:44:12.605Z,17.63
2018-02-06T22:46:40.294Z,16.23
2018-02-06T22:49:08.757Z,16.17
2018-02-06T22:51:36.447Z,15.63
2018-02-06T22:54:04.904Z,15.33
2018-02-06T22:56:32.621Z,16.77
2018-02-06T22:59:00.331Z,15.53
2018-02-06T23:01:28.791Z,16.73
2018-02-06T23:03:56.510Z,14.87
2018-02-06T23:06:24.202Z,16.67
2018-02-06T23:08:51.881Z,15.77
2018-02-06T23:11:19.593Z,15.20
2018-02-06T23:13:47.299Z,15.63
2018-02-06T23:16:14.966Z,16.40
2018-02-06T23:18:42.641Z,15.13
2018-02-06T23:21:11.087Z,15.67
2018-02-06T23:23:38.813Z,15.00
2018-02-06T23:26:06.517Z,14.70
2018-02-06T23:28:34.214Z,14.50
2018-02-06T23:31:02.674Z,13.93
2018-02-06T23:33:30.365Z,14.70
2018-02-06T23:35:58.025Z,12.90
2018-02-06T23:38:25.734Z,13.23
2018-02-06T23:40:53.443Z,13.50
2018-02-06T23:43:21.918Z,13.80
2018-02-06T23:45:50.371Z,12.73
2018-02-06T23:48:18.079Z,13.47
2018-02-06T23:50:45.941Z,14.50
2018-02-06T23:53:13.630Z,13.40
2018-02-06T23:55:41.334Z,13.73
2018-02-06T23:58:09.254Z,12.70
